Gloucester, MA (01930)

10:53 AM EDT on September 04, 2015 (GMT -0400)
Washington St. near Hospital | | Change Station
CLOSE
Current Station
Personal Weather Station
Location: Gloucester, MA
Elevation: 29 ft
Nearby Weather Stations

Elev 29 ft 42.63 °N, 70.68 °W | Updated 12 seconds ago

Overcast
Overcast
64.3 °F
Feels Like 64.3 °F
N
6.0
Wind Variable Wind from NE
Gusts 17.0 mph

Today
High -- | Low -- °F
--% Chance of Precip.
Yesterday
High -- | Low -- °F
Precip. -- in
6:10 AM 7:12 PM
Waning Gibbous, 59% visible
Pressure 30.15 in
Visibility 10.0 miles
Clouds Scattered Clouds 3400 ft
Mostly Cloudy 4600 ft
Overcast 5500 ft
Dew Point 58 °F
Humidity 79%
Rainfall 0.00 in
Snow Depth Not available.
UV 2 out of 12
Pollen 8.50 out of 12
Air Quality Not available.
Flu Activity Not available.
METAR KBVY 041353Z 02011G18KT 10SM SCT034 BKN046 OVC055 19/13 A3017 RMK AO2 SLP209 T01890128
Pressure 30.15 in
Visibility 10.0 miles
Clouds Scattered Clouds 3400 ft
Mostly Cloudy 4600 ft
Overcast 5500 ft
Dew Point 58 °F
Humidity 79%
Rainfall 0.00 in
Snow Depth Not available.
UV 2 out of 12
Pollen 8.50 out of 12
Air Quality Not available.
Flu Activity Not available.
METAR KBVY 041353Z 02011G18KT 10SM SCT034 BKN046 OVC055 19/13 A3017 RMK AO2 SLP209 T01890128

10-Day Weather Forecast

×

Almanac

Astronomy

Sep. 04, 2015 Rise Set
Actual Time
Civil Twilight
Nautical Twilight
Astronomical Twilight
Moon
Length of Visible Light
Length of Day
Tomorrow will be .
, % of the Moon is Illuminated

Today's Extremes

State Highs State Lows

Community

WunderPhotos

Upload Photos

1,852,187 photos uploaded!

WunderBlogs® & News

Nearby

Air Quality

  Air Quality AQ Index Pollutant
Not available.

Snow Depth

Station Depth Elevation

Earthquake Activity

City Distance Mag. Time & Date
Minimum magnitude displayed is 2.5.

Coastal Water Temperatures

Place Temperature

Stations

Nearby Weather Stations

Station Location Temp. Windchill Dew Point Humidity Wind Precip. Elev Updated Type